Time;durP1;ratioP1;P1;durP2;ratioP2;P2;SDS_P1;SDS_P2;PMS_P1;PMS_P2;Temp;Humidity;BMP_temperature;BMP_pressure;BME280_temperature;BME280_humidity;BME280_pressure;Samples;Min_cycle;Max_cycle;Signal;HPM_P1;HPM_P2
2022/05/25 00:02:06;;;;;;;2.47;2.27;;;16.20;68.10;;;19.08;51.43;101057.59;5172070;27;20637;-60
2022/05/25 00:04:33;;;;;;;2.50;2.30;;;16.30;68.00;;;19.08;51.58;101054.91;5147405;27;20202;-63
2022/05/25 00:07:01;;;;;;;4.40;2.90;;;16.40;68.20;;;19.11;51.48;101062.50;5110347;28;20218;-64
2022/05/25 00:09:28;;;;;;;3.07;2.50;;;16.40;68.20;;;19.09;51.60;101061.91;5148259;27;20194;-61
2022/05/25 00:11:54;;;;;;;3.03;2.70;;;16.40;68.10;;;19.10;51.58;101063.50;5107110;27;20206;-65
2022/05/25 00:14:21;;;;;;;3.03;2.83;;;16.40;68.00;;;19.06;51.54;101062.34;5052411;28;20259;-63
2022/05/25 00:16:48;;;;;;;2.97;2.77;;;16.40;67.90;;;18.90;51.71;101074.38;5043691;28;20308;-62
2022/05/25 00:23:03;;;;;;;3.67;3.37;;;16.40;67.80;;;18.62;52.83;101074.03;5159420;27;21073;-62
2022/05/25 00:25:33;;;;;;;5.30;3.00;;;16.20;68.40;;;18.56;52.47;101072.25;5120397;28;20264;-62
2022/05/25 00:28:01;;;;;;;4.60;2.87;;;16.20;68.40;;;18.60;52.74;101058.28;5091362;28;20189;-62
2022/05/25 00:30:29;;;;;;;2.97;2.50;;;16.10;68.60;;;18.65;52.41;101071.75;5107349;28;20321;-61
2022/05/25 00:32:58;;;;;;;3.10;2.43;;;16.10;68.60;;;18.72;52.25;101069.84;5081343;28;20308;-62
2022/05/25 00:35:26;;;;;;;4.17;2.60;;;16.10;68.70;;;18.76;52.17;101073.69;5082307;28;20226;-61
2022/05/25 00:37:53;;;;;;;2.67;2.47;;;16.10;68.90;;;18.84;51.86;101076.09;5104285;28;20231;-62
2022/05/25 00:44:30;;;;;;;2.20;2.10;;;16.10;68.70;;;18.98;51.57;101082.13;5170537;27;20630;-63
2022/05/25 00:46:57;;;;;;;3.57;2.93;;;16.20;68.30;;;19.05;51.39;101076.69;5130847;28;20222;-63
2022/05/25 00:49:29;;;;;;;2.03;1.83;;;16.20;68.00;;;19.10;50.92;101084.84;5094722;28;20309;-63
2022/05/25 00:52:01;;;;;;;3.00;2.23;;;16.30;67.50;;;19.13;50.75;101076.41;5122709;28;20230;-63
2022/05/25 00:54:32;;;;;;;1.90;1.80;;;16.30;67.30;;;19.14;50.60;101083.38;5066551;28;20202;-62
2022/05/25 00:57:07;;;;;;;2.30;2.10;;;16.30;67.80;;;19.14;50.48;101080.69;4990394;28;20677;-62
2022/05/25 00:59:46;;;;;;;2.50;2.30;;;16.40;66.70;;;19.13;50.23;101077.25;4982136;28;20196;-65
2022/05/25 01:02:14;;;;;;;3.93;2.30;;;16.40;66.50;;;19.15;50.44;101093.03;4879179;29;20285;-62
2022/05/25 01:04:55;;;;;;;2.40;2.20;;;16.40;66.30;;;19.11;50.22;101089.16;4742348;29;20327;-63
2022/05/25 01:10:17;;;;;;;2.63;2.00;;;16.40;66.00;;;19.06;50.44;101089.03;5172317;27;20609;-62
2022/05/25 01:13:03;;;;;;;2.43;2.17;;;16.40;66.40;;;19.04;50.21;101093.75;5127227;28;20227;-62
2022/05/25 01:15:55;;;;;;;2.90;2.57;;;16.40;66.10;;;19.02;50.15;101087.84;5071875;28;20607;-62
2022/05/25 01:18:33;;;;;;;2.90;2.13;;;16.40;66.20;;;19.04;50.37;101096.44;5024379;28;20198;-62
2022/05/25 01:21:08;;;;;;;3.30;2.30;;;16.40;66.20;;;19.07;50.18;101103.97;4972382;28;20569;-62
2022/05/25 01:24:09;;;;;;;2.73;2.20;;;16.40;66.10;;;19.05;50.24;101104.19;4988729;28;20642;-62
2022/05/25 01:27:21;;;;;;;3.23;2.20;;;16.40;66.00;;;19.04;50.16;101112.44;4862400;29;20217;-62
2022/05/25 01:30:14;;;;;;;2.30;2.10;;;16.40;65.80;;;19.03;49.85;101110.78;4606058;30;20307;-62
2022/05/25 01:32:56;;;;;;;3.23;2.17;;;16.40;65.30;;;19.06;49.90;101115.69;4415802;31;20225;-62
2022/05/25 01:38:13;;;;;;;2.40;2.20;;;16.40;65.10;;;18.98;49.98;101115.97;5171734;27;20626;-62
2022/05/25 01:40:57;;;;;;;2.03;1.93;;;16.30;65.30;;;18.94;50.20;101118.28;5109916;28;20279;-64
2022/05/25 01:43:30;;;;;;;2.50;2.30;;;16.30;65.80;;;18.91;49.95;101126.72;5085703;28;20334;-62
2022/05/25 01:46:04;;;;;;;2.53;2.40;;;16.30;65.50;;;18.89;50.34;101126.13;5086204;28;20216;-62
2022/05/25 01:48:38;;;;;;;3.67;2.63;;;16.20;65.80;;;18.85;50.36;101125.72;5036717;28;20199;-62
2022/05/25 01:51:12;;;;;;;2.70;2.50;;;16.20;66.20;;;18.85;50.65;101125.72;4951237;28;20193;-60
2022/05/25 01:53:46;;;;;;;3.17;2.47;;;16.20;66.60;;;18.85;50.74;101123.06;4856508;29;20217;-62
2022/05/25 01:58:57;;;;;;;3.57;3.27;;;16.20;66.70;;;18.87;51.05;101120.19;5171688;27;20549;-63
2022/05/25 02:01:24;;;;;;;3.07;2.87;;;16.20;66.90;;;18.89;50.63;101121.63;5133822;27;20206;-61
2022/05/25 02:07:06;;;;;;;3.80;3.50;;;16.20;66.70;;;18.71;50.86;101123.38;5056657;28;20677;-62
2022/05/25 02:09:53;;;;;;;4.83;4.30;;;16.20;66.70;;;18.61;51.44;101123.09;5015396;28;20222;-62
2022/05/25 02:12:36;;;;;;;3.60;3.30;;;16.20;66.80;;;18.48;51.62;101124.00;4887403;29;20720;-62
2022/05/25 02:15:27;;;;;;;6.93;6.23;;;16.10;66.90;;;18.44;51.92;101128.09;4865008;29;20304;-62
2022/05/25 02:18:08;;;;;;;3.30;3.10;;;16.00;67.30;;;18.45;52.04;101132.38;4751467;29;20250;-62
2022/05/25 02:20:34;;;;;;;3.83;3.53;;;16.00;68.00;;;18.53;52.23;101129.50;4595207;30;20249;-62
2022/05/25 02:25:46;;;;;;;4.17;3.87;;;16.00;68.20;;;18.60;51.63;101124.09;5160624;27;20643;-62
2022/05/25 02:28:20;;;;;;;3.80;3.50;;;15.90;67.90;;;18.60;51.75;101124.94;5112046;28;20707;-64
2022/05/25 02:30:51;;;;;;;4.40;4.00;;;15.90;68.00;;;18.60;51.94;101124.09;5117574;28;20667;-62
2022/05/25 02:33:48;;;;;;;4.63;4.23;;;16.00;68.30;;;18.60;51.91;101122.25;5036307;28;20230;-64
2022/05/25 02:36:17;;;;;;;5.13;4.43;;;15.90;68.00;;;18.60;51.65;101127.59;5046671;28;20272;-62
2022/05/25 02:38:45;;;;;;;4.90;4.50;;;16.00;67.90;;;18.59;51.79;101123.28;5020493;28;20198;-63
2022/05/25 02:41:24;;;;;;;4.80;4.40;;;15.90;68.10;;;18.58;51.68;101129.66;5023619;28;20274;-65
2022/05/25 02:43:51;;;;;;;5.40;5.00;;;15.90;67.90;;;18.42;52.21;101127.50;4867670;29;20230;-62
2022/05/25 02:48:55;;;;;;;5.63;5.03;;;15.90;68.00;;;18.38;52.51;101131.63;5156758;27;20631;-63
2022/05/25 02:51:22;;;;;;;5.83;5.33;;;15.80;68.60;;;18.40;52.71;101134.88;5131340;27;20194;-62
2022/05/25 02:53:49;;;;;;;4.80;4.40;;;15.80;68.90;;;18.44;52.67;101130.78;5147593;27;20226;-64
2022/05/25 02:56:15;;;;;;;5.30;4.20;;;15.80;69.10;;;18.47;52.56;101138.34;5140515;27;20608;-62
2022/05/25 02:58:42;;;;;;;6.67;5.80;;;15.80;69.10;;;18.42;52.56;101142.69;5097716;28;20254;-62
2022/05/25 03:01:09;;;;;;;6.20;5.70;;;15.80;68.80;;;18.36;52.54;101147.00;5011938;28;20250;-62
2022/05/25 03:03:37;;;;;;;5.77;5.03;;;15.80;68.90;;;18.35;52.81;101145.38;5044702;28;20194;-62
2022/05/25 03:06:07;;;;;;;5.60;5.13;;;15.70;69.20;;;18.36;52.71;101146.19;5030329;28;20292;-61
2022/05/25 03:08:35;;;;;;;6.87;5.97;;;15.70;69.20;;;18.31;52.54;101154.00;5032654;28;20305;-62
2022/05/25 03:13:45;;;;;;;7.27;6.57;;;15.70;69.00;;;18.15;52.87;101152.69;5171060;27;20641;-62
2022/05/25 03:16:13;;;;;;;7.33;6.67;;;15.60;69.30;;;18.03;53.28;101155.22;5128540;27;20258;-62
2022/05/25 03:18:39;;;;;;;5.93;5.43;;;15.50;69.60;;;17.98;53.60;101149.69;5096077;28;20201;-64
2022/05/25 03:21:08;;;;;;;7.13;6.53;;;15.50;69.70;;;17.93;53.64;101156.69;5086691;28;20657;-61
2022/05/25 03:23:35;;;;;;;6.80;6.10;;;15.50;69.80;;;17.90;53.93;101157.94;5072926;28;20207;-62
2022/05/25 03:26:01;;;;;;;7.50;6.80;;;15.40;70.00;;;17.85;53.91;101159.59;5034047;28;20261;-63
2022/05/25 03:28:28;;;;;;;7.37;6.67;;;15.40;70.00;;;17.80;53.83;101162.09;5077333;28;20204;-62
2022/05/25 03:34:36;;;;;;;7.77;7.03;;;15.30;70.10;;;17.75;54.27;101165.38;5149977;27;20627;-58
2022/05/25 03:37:03;;;;;;;7.53;6.83;;;15.20;70.70;;;17.74;54.25;101160.25;5109624;28;20203;-60
2022/05/25 03:39:30;;;;;;;6.23;5.73;;;15.20;70.80;;;17.75;54.32;101164.56;5099996;28;20209;-62
2022/05/25 03:42:04;;;;;;;7.23;6.63;;;15.20;71.50;;;17.79;54.34;101163.91;5093232;28;20199;-61
2022/05/25 03:44:31;;;;;;;7.10;6.50;;;15.20;71.60;;;17.83;54.25;101170.44;5088965;28;20193;-62
2022/05/25 03:46:57;;;;;;;7.23;6.63;;;15.20;71.30;;;17.87;54.35;101168.19;5081281;28;20293;-62
2022/05/25 03:49:24;;;;;;;8.40;7.57;;;15.20;71.20;;;17.83;54.01;101165.13;5065768;28;20193;-63
2022/05/25 03:51:53;;;;;;;6.93;6.33;;;15.20;71.00;;;17.77;54.17;101167.81;5042096;28;20202;-62
2022/05/25 03:54:19;;;;;;;6.50;5.93;;;15.20;71.10;;;17.78;54.49;101169.47;4909726;29;20225;-62
2022/05/25 03:59:24;;;;;;;6.70;6.20;;;15.20;71.30;;;17.85;54.54;101171.06;5171766;27;20875;-62
2022/05/25 04:01:51;;;;;;;6.60;5.90;;;15.20;71.70;;;17.92;54.17;101168.38;5150974;27;20222;-62
2022/05/25 04:04:18;;;;;;;9.53;7.30;;;15.20;71.50;;;17.96;53.93;101174.91;5129533;27;20195;-63
2022/05/25 04:06:45;;;;;;;7.97;7.27;;;15.30;71.00;;;17.97;53.75;101168.56;5116063;28;20211;-64
2022/05/25 04:09:12;;;;;;;7.90;7.13;;;15.30;70.70;;;17.94;53.74;101169.00;5111029;28;20204;-66
2022/05/25 04:11:42;;;;;;;7.83;7.23;;;15.40;70.60;;;17.81;53.98;101169.03;5123391;27;20273;-62
2022/05/25 04:14:10;;;;;;;8.00;7.30;;;15.30;70.30;;;17.64;54.19;101174.00;5080933;28;20280;-62
2022/05/25 04:16:38;;;;;;;8.50;7.73;;;15.20;70.20;;;17.49;54.47;101176.09;4902987;29;20224;-63
2022/05/25 04:19:04;;;;;;;10.03;9.23;;;15.20;70.80;;;17.37;55.31;101178.56;4842809;29;20643;-62
2022/05/25 04:24:12;;;;;;;9.30;8.40;;;15.00;71.00;;;17.17;55.42;101182.25;5154252;27;21130;-63
2022/05/25 04:26:40;;;;;;;8.97;7.97;;;14.80;71.50;;;17.06;56.15;101178.41;5110166;28;20540;-62
2022/05/25 04:29:07;;;;;;;7.27;6.67;;;14.70;72.00;;;17.02;56.13;101182.47;5109143;28;21232;-62
2022/05/25 04:31:34;;;;;;;9.07;8.27;;;14.60;72.40;;;17.05;55.76;101184.72;5103454;28;20199;-61
2022/05/25 04:34:00;;;;;;;9.23;8.40;;;14.60;72.50;;;17.09;55.99;101185.94;5105571;28;20630;-62
2022/05/25 04:36:27;;;;;;;10.03;9.17;;;14.60;73.10;;;16.98;56.40;101188.41;5118788;28;20219;-64
2022/05/25 04:38:54;;;;;;;9.93;9.10;;;14.60;73.20;;;16.85;56.63;101187.38;5068918;28;20225;-62
2022/05/25 04:42:51;;;;;;;9.10;8.23;;;14.50;73.00;;;16.65;57.37;101189.22;4964364;28;20298;-61
2022/05/25 04:47:58;;;;;;;10.30;9.27;;;14.50;73.20;;;16.52;57.59;101194.50;5162903;27;20635;-63
2022/05/25 04:50:28;;;;;;;9.33;8.53;;;14.30;73.80;;;16.50;57.68;101201.84;5126039;28;20266;-63
2022/05/25 04:52:59;;;;;;;9.43;8.40;;;14.30;74.20;;;16.54;57.66;101199.66;5106863;28;20201;-61
2022/05/25 04:58:20;;;;;;;10.00;9.10;;;14.20;74.50;;;16.61;57.46;101203.97;5019301;28;20314;-62
2022/05/25 05:00:47;;;;;;;9.87;8.87;;;14.20;74.40;;;16.74;57.39;101201.31;4992926;28;20203;-62
2022/05/25 05:03:16;;;;;;;7.80;7.10;;;14.20;74.50;;;16.87;57.16;101211.97;4992293;28;20201;-65
2022/05/25 05:09:11;;;;;;;9.50;8.60;;;14.30;74.60;;;16.82;57.09;101211.75;5193679;27;20632;-61
2022/05/25 05:11:38;;;;;;;10.37;9.47;;;14.40;74.00;;;16.82;57.14;101205.59;5172445;27;20198;-62
2022/05/25 05:14:04;;;;;;;10.17;9.20;;;14.40;74.00;;;16.78;57.47;101209.72;5169409;27;20210;-65
2022/05/25 05:16:32;;;;;;;9.87;8.97;;;14.40;74.00;;;16.75;57.55;101207.44;5165831;27;20224;-63
2022/05/25 05:18:59;;;;;;;11.33;10.23;;;14.40;74.20;;;16.79;57.68;101211.31;5112679;27;20336;-62
2022/05/25 05:21:25;;;;;;;9.20;8.40;;;14.40;74.40;;;16.82;57.11;101211.75;5028182;28;20609;-63
2022/05/25 05:23:52;;;;;;;9.70;8.80;;;14.40;74.20;;;16.73;57.64;101207.66;5013421;28;20617;-63
2022/05/25 05:30:14;;;;;;;10.97;9.97;;;14.40;74.70;;;16.58;58.42;101220.31;5158182;27;20639;-64
2022/05/25 05:32:46;;;;;;;9.93;9.10;;;14.40;75.20;;;16.65;58.34;101226.44;5117685;28;20221;-62
2022/05/25 05:35:13;;;;;;;10.73;9.30;;;14.40;75.10;;;16.75;57.84;101229.53;5102619;28;20243;-65
2022/05/25 05:37:47;;;;;;;12.80;10.13;;;14.40;75.00;;;16.83;58.05;101239.97;5089927;28;20200;-63
2022/05/25 05:40:18;;;;;;;9.47;8.60;;;14.50;75.10;;;16.93;57.66;101223.59;5049440;28;20198;-62
2022/05/25 05:42:50;;;;;;;10.47;9.47;;;14.50;74.90;;;17.04;57.28;101225.69;5001069;28;20192;-62
2022/05/25 05:45:23;;;;;;;11.23;10.17;;;14.50;75.10;;;17.10;57.00;101224.84;4947819;28;20268;-63
2022/05/25 05:47:50;;;;;;;10.60;9.60;;;14.60;74.80;;;17.19;56.92;101228.09;4836342;29;20215;-62
2022/05/25 05:52:54;;;;;;;11.57;10.60;;;14.70;74.80;;;17.31;57.05;101237.94;5171966;27;20396;-61
2022/05/25 05:55:21;;;;;;;11.83;10.73;;;14.80;74.80;;;17.39;56.59;101240.38;5141179;27;20216;-63
2022/05/25 05:57:48;;;;;;;9.43;8.63;;;14.80;74.30;;;17.55;56.46;101231.16;5112874;28;20200;-63
2022/05/25 06:00:17;;;;;;;10.27;9.17;;;15.00;74.30;;;17.73;55.97;101235.84;5107671;28;20212;-61
2022/05/25 06:02:44;;;;;;;9.17;8.37;;;15.10;74.10;;;17.87;55.60;101237.44;5091921;28;20288;-63
2022/05/25 06:05:11;;;;;;;10.20;9.33;;;15.10;73.90;;;17.89;55.21;101238.06;5055147;28;20343;-61
2022/05/25 06:07:39;;;;;;;9.77;8.87;;;15.20;73.10;;;17.96;55.13;101239.66;4973802;28;20225;-61
2022/05/25 06:11:37;;;;;;;11.53;10.43;;;15.30;73.10;;;17.84;55.42;101238.69;4908605;29;20226;-63
2022/05/25 06:19:30;;;;;;;10.33;9.33;;;15.50;72.30;;;18.22;54.28;101238.75;5104121;28;20233;-63
2022/05/25 06:21:58;;;;;;;10.30;9.40;;;15.60;71.70;;;18.29;53.85;101242.19;5073801;28;20192;-63
2022/05/25 06:24:25;;;;;;;11.37;10.27;;;15.70;71.20;;;18.30;53.74;101249.16;5122205;28;20191;-63
2022/05/25 06:26:52;;;;;;;10.43;9.43;;;15.80;70.70;;;18.39;54.09;101247.88;5079909;28;20217;-62
2022/05/25 06:29:20;;;;;;;9.80;7.70;;;15.90;70.90;;;18.60;53.83;101247.59;5019412;28;20230;-62
2022/05/25 06:31:49;;;;;;;11.53;9.70;;;15.90;70.90;;;18.75;53.20;101253.47;4999437;28;20744;-63
2022/05/25 06:34:15;;;;;;;11.00;9.33;;;16.10;70.40;;;18.94;52.37;101257.81;4893289;28;20229;-61
2022/05/25 06:36:42;;;;;;;8.33;7.60;;;16.10;69.30;;;19.09;52.00;101254.03;4739570;29;20246;-61
2022/05/25 06:40:53;;;;;;;9.60;8.67;;;16.20;69.30;;;19.35;51.34;101254.59;5171906;27;20630;-62
2022/05/25 06:43:21;;;;;;;17.23;15.03;;;16.40;68.50;;;19.50;50.76;101252.47;5151032;27;20301;-62
2022/05/25 06:45:48;;;;;;;8.77;7.97;;;16.50;67.80;;;19.64;50.35;101261.16;5143911;27;20207;-64
2022/05/25 06:48:15;;;;;;;7.60;6.90;;;16.70;67.30;;;19.74;49.89;101248.09;5140137;27;20270;-62
2022/05/25 06:50:42;;;;;;;8.87;7.97;;;16.80;66.20;;;19.80;49.02;101268.56;5105759;27;20214;-66
2022/05/25 06:53:20;;;;;;;8.00;7.03;;;16.90;65.70;;;19.88;49.09;101265.63;5095729;28;20259;-61
2022/05/25 06:55:47;;;;;;;7.17;6.50;;;17.00;66.10;;;19.92;48.79;101271.34;5144526;27;20218;-62
2022/05/25 07:00:52;;;;;;;9.13;7.13;;;17.10;65.30;;;20.11;47.81;101257.75;5171955;27;20634;-61
2022/05/25 07:03:20;;;;;;;7.87;6.00;;;17.30;64.10;;;20.25;48.33;101261.91;5130022;27;20202;-61
2022/05/25 07:05:47;;;;;;;8.43;7.73;;;17.40;64.50;;;20.37;47.75;101269.19;5134361;27;20275;-63
2022/05/25 07:08:14;;;;;;;8.60;7.90;;;17.50;64.30;;;20.31;47.60;101268.22;5141053;27;20620;-62
2022/05/25 07:10:45;;;;;;;8.33;7.60;;;17.60;62.90;;;20.21;48.01;101266.06;5105678;28;20281;-64
2022/05/25 07:13:12;;;;;;;8.30;7.50;;;17.60;62.80;;;20.14;47.85;101259.97;5051105;28;20309;-63
2022/05/25 07:15:39;;;;;;;11.63;8.67;;;17.70;62.90;;;20.27;48.21;101263.56;5000117;28;20230;-63
2022/05/25 07:20:43;;;;;;;8.40;7.37;;;17.70;62.80;;;20.55;47.09;101271.81;5154868;27;20539;-61
2022/05/25 07:23:25;;;;;;;10.30;9.30;;;17.70;62.10;;;20.62;46.71;101272.53;5116866;27;20206;-62
2022/05/25 07:25:52;;;;;;;8.03;7.43;;;17.90;61.90;;;20.56;46.86;101278.81;5089294;28;20228;-63
2022/05/25 07:28:19;;;;;;;7.87;7.13;;;17.90;61.40;;;20.58;46.24;101266.84;5018456;28;20726;-64
2022/05/25 07:30:51;;;;;;;9.73;7.67;;;18.00;60.90;;;20.60;46.01;101279.97;4941152;28;20211;-64
2022/05/25 07:33:18;;;;;;;8.47;7.03;;;18.00;60.40;;;20.69;45.40;101278.63;4940084;28;20208;-61
2022/05/25 07:35:46;;;;;;;7.37;6.53;;;18.00;59.40;;;20.68;45.49;101280.47;4910857;28;20247;-62
2022/05/25 07:38:12;;;;;;;6.13;5.53;;;18.10;59.60;;;20.79;45.81;101278.88;4791146;29;20217;-63
2022/05/25 07:43:21;;;;;;;7.30;6.30;;;18.10;59.50;;;21.15;44.75;101281.47;5144652;27;20558;-64
2022/05/25 07:45:48;;;;;;;7.47;6.73;;;18.30;58.90;;;21.27;43.80;101266.22;5086539;28;20245;-63
2022/05/25 07:48:16;;;;;;;17.17;15.37;;;18.30;58.40;;;21.35;44.09;101273.91;5101305;28;20203;-64
2022/05/25 07:50:44;;;;;;;7.47;6.77;;;18.40;58.40;;;21.50;43.16;101274.25;5088206;28;20604;-61
2022/05/25 07:56:01;;;;;;;6.00;5.50;;;18.60;57.90;;;21.57;43.06;101276.81;4945419;28;20230;-63
2022/05/25 07:58:28;;;;;;;6.77;6.13;;;18.80;56.90;;;21.44;42.88;101271.72;4887286;29;20257;-63
2022/05/25 08:00:54;;;;;;;6.37;5.73;;;18.80;56.20;;;21.29;42.48;101272.16;4802669;29;20212;-63
2022/05/25 08:05:59;;;;;;;5.00;4.50;;;18.80;55.70;;;22.51;40.80;101278.28;5119900;27;20564;-63
2022/05/25 08:08:26;;;;;;;3.83;3.30;;;19.10;54.70;;;23.27;38.33;101278.56;5102450;28;20247;-63
2022/05/25 08:11:03;;;;;;;3.47;3.17;;;19.50;52.80;;;23.95;36.99;101272.88;5078043;28;20613;-60
2022/05/25 08:13:30;;;;;;;4.30;3.90;;;19.90;51.60;;;25.10;35.71;101283.31;5030243;28;20250;-62
2022/05/25 08:15:57;;;;;;;4.23;3.83;;;20.40;51.80;;;26.20;32.45;101282.41;4967671;28;20226;-66
2022/05/25 08:18:24;;;;;;;3.37;3.17;;;21.00;48.40;;;26.90;30.89;101275.59;4914818;29;20218;-63
2022/05/25 08:20:50;;;;;;;3.03;2.77;;;21.70;46.80;;;27.91;30.80;101273.56;4850719;29;20278;-63
2022/05/25 08:23:17;;;;;;;2.90;2.70;;;22.50;46.80;;;28.94;29.39;101284.41;4381575;30;20227;-64
2022/05/25 08:28:21;;;;;;;3.63;3.23;;;23.30;44.90;;;30.69;24.41;101268.06;5136351;27;20574;-63
2022/05/25 08:30:48;;;;;;;3.00;2.70;;;24.50;38.10;;;30.71;26.22;101271.31;5097664;28;20249;-63
2022/05/25 08:33:18;;;;;;;4.70;2.93;;;25.10;38.40;;;30.87;24.58;101279.22;5091549;28;20200;-63
2022/05/25 08:35:45;;;;;;;3.30;3.03;;;25.40;36.70;;;31.04;25.35;101264.03;5058497;28;20231;-63
2022/05/25 08:38:12;;;;;;;3.50;3.20;;;25.80;37.50;;;31.98;24.86;101273.44;5015273;28;20315;-63
2022/05/25 08:40:40;;;;;;;2.53;2.27;;;26.20;37.50;;;32.71;23.28;101269.69;4924481;28;20286;-65
2022/05/25 08:43:18;;;;;;;2.57;2.37;;;26.50;35.10;;;33.21;22.26;101276.59;4781217;29;20286;-62
2022/05/25 08:45:45;;;;;;;2.57;2.37;;;26.90;33.90;;;33.68;22.40;101271.56;4582982;30;20252;-63
2022/05/25 08:50:54;;;;;;;3.83;3.60;;;27.20;34.00;;;34.38;20.93;101263.22;5132820;27;20563;-64
2022/05/25 08:53:24;;;;;;;4.67;2.67;;;27.90;31.60;;;33.64;21.43;101265.13;5062713;28;20216;-63
2022/05/25 08:56:01;;;;;;;8.30;5.80;;;27.90;30.70;;;33.23;22.20;101260.75;5049214;28;20644;-64
2022/05/25 08:58:40;;;;;;;5.20;2.90;;;27.90;32.40;;;33.39;21.56;101264.69;5004259;28;20236;-63
2022/05/25 09:01:11;;;;;;;3.10;2.90;;;27.90;31.50;;;33.44;21.71;101274.66;4966196;28;20214;-62
2022/05/25 09:03:49;;;;;;;2.10;2.00;;;28.00;31.30;;;32.56;22.21;101272.75;4917994;29;20227;-67
2022/05/25 09:06:29;;;;;;;2.40;2.20;;;27.90;30.40;;;32.40;21.90;101263.28;4880342;29;20328;-62
2022/05/25 09:08:55;;;;;;;3.57;3.10;;;27.80;30.20;;;32.27;22.83;101264.13;4703081;29;20231;-62
2022/05/25 09:14:10;;;;;;;4.10;2.23;;;27.60;30.60;;;32.67;22.15;101253.13;5135575;27;20577;-62
2022/05/25 09:16:37;;;;;;;5.70;5.17;;;27.30;31.20;;;33.09;21.20;101264.69;5063550;28;20233;-61
2022/05/25 09:19:12;;;;;;;1.80;1.70;;;27.40;30.00;;;33.45;21.17;101267.28;5058964;28;20198;-61
2022/05/25 09:21:47;;;;;;;1.87;1.70;;;27.70;30.00;;;34.02;20.34;101261.53;4993860;28;20297;-61
2022/05/25 09:24:20;;;;;;;3.00;2.10;;;27.90;29.40;;;34.69;19.67;101263.88;4911447;28;20215;-63
2022/05/25 09:26:54;;;;;;;2.17;1.83;;;28.10;29.10;;;33.73;19.46;101271.44;4813557;29;20726;-63
2022/05/25 09:29:27;;;;;;;3.33;2.07;;;28.20;28.00;;;33.20;20.03;101272.28;4653248;30;20671;-61
2022/05/25 09:31:54;;;;;;;4.27;3.87;;;28.00;28.30;;;33.50;20.45;101278.03;4451054;31;20250;-63
2022/05/25 09:37:09;;;;;;;1.67;1.57;;;28.00;29.10;;;34.76;18.96;101274.38;5140711;27;20559;-63
2022/05/25 09:39:43;;;;;;;3.43;1.90;;;28.40;28.40;;;35.16;18.16;101267.56;5068757;28;20220;-61
2022/05/25 09:42:17;;;;;;;2.30;1.67;;;28.60;27.90;;;35.42;18.17;101265.53;5091118;28;20242;-63
2022/05/25 09:44:49;;;;;;;2.17;1.97;;;28.90;27.80;;;35.85;18.63;101276.34;5013952;28;20231;-62
2022/05/25 09:47:24;;;;;;;2.13;1.70;;;29.20;27.80;;;35.13;19.18;101279.16;4965307;28;20705;-64
2022/05/25 09:49:57;;;;;;;1.97;1.67;;;29.30;27.70;;;34.60;19.20;101274.84;4808233;29;22291;-62
2022/05/25 09:52:42;;;;;;;3.50;1.80;;;29.10;27.20;;;33.42;19.71;101274.16;4695959;30;20250;-64
2022/05/25 09:55:08;;;;;;;3.33;1.47;;;28.70;26.90;;;32.95;19.90;101281.06;4539129;30;20255;-63
2022/05/25 10:00:22;;;;;;;1.40;1.30;;;28.50;27.00;;;32.78;20.25;101271.97;5134853;27;20560;-62
2022/05/25 10:02:57;;;;;;;1.43;1.33;;;28.10;27.90;;;32.70;20.33;101279.78;5111424;28;20207;-63
2022/05/25 10:05:30;;;;;;;1.50;1.40;;;27.80;28.60;;;32.65;20.43;101276.34;5086226;28;20223;-63
2022/05/25 10:08:08;;;;;;;2.00;1.90;;;27.80;28.40;;;32.80;20.87;101273.28;5046116;28;20299;-63
2022/05/25 10:10:56;;;;;;;3.57;2.60;;;27.70;28.70;;;32.65;20.81;101281.81;4959940;28;20260;-62
2022/05/25 10:13:27;;;;;;;6.33;5.27;;;27.70;29.10;;;32.26;21.39;101282.38;4777532;29;20689;-65
2022/05/25 10:15:56;;;;;;;1.83;1.60;;;27.70;29.20;;;31.85;22.21;101279.69;4668908;30;20235;-63
2022/05/25 10:18:31;;;;;;;1.53;1.40;;;27.50;29.30;;;31.36;21.86;101276.78;4470263;31;21168;-62
2022/05/25 10:23:43;;;;;;;1.60;1.50;;;27.30;29.30;;;32.06;21.80;101278.19;5151924;27;20626;-62
2022/05/25 10:26:17;;;;;;;1.53;1.43;;;27.10;29.80;;;32.53;21.30;101276.09;5090811;28;20687;-65
2022/05/25 10:28:52;;;;;;;1.60;1.50;;;27.20;30.00;;;32.61;21.12;101280.81;5118568;28;20597;-63
2022/05/25 10:36:58;;;;;;;1.53;1.43;;;27.60;29.50;;;33.35;20.31;101274.59;4871900;29;20230;-61
2022/05/25 10:39:35;;;;;;;1.83;1.40;;;27.80;29.40;;;33.08;21.02;101274.78;4747847;29;20222;-64
2022/05/25 10:42:02;;;;;;;2.30;1.50;;;27.90;29.10;;;32.83;20.89;101271.84;4622522;30;20238;-63
2022/05/25 10:47:34;;;;;;;1.50;1.40;;;27.90;29.50;;;32.03;21.41;101270.63;5175021;27;20551;-63
2022/05/25 10:50:05;;;;;;;2.10;1.80;;;27.70;28.80;;;31.47;22.14;101266.56;5137718;27;20255;-62
2022/05/25 10:52:40;;;;;;;5.17;1.73;;;27.50;28.90;;;31.16;22.54;101261.63;5137353;27;20662;-62
2022/05/25 10:55:08;;;;;;;1.67;1.57;;;27.30;29.20;;;30.93;23.01;101256.34;5077204;28;20224;-63
2022/05/25 10:58:35;;;;;;;2.33;1.87;;;27.00;29.70;;;30.01;23.70;101261.41;5035426;28;20677;-63
2022/05/25 11:01:37;;;;;;;1.60;1.47;;;26.70;30.00;;;29.59;23.90;101254.00;4753277;29;20240;-63
2022/05/25 11:04:10;;;;;;;2.13;1.50;;;26.30;30.40;;;29.32;24.35;101259.97;4559430;31;20237;-63
2022/05/25 11:06:45;;;;;;;2.23;2.00;;;26.00;31.20;;;29.09;24.88;101266.16;4401565;31;20271;-63
2022/05/25 11:12:00;;;;;;;3.67;2.10;;;25.80;31.40;;;28.26;25.40;101267.22;5142581;27;20551;-64
2022/05/25 11:14:48;;;;;;;2.00;1.90;;;25.20;32.20;;;28.12;25.56;101267.81;5083181;28;20214;-64
2022/05/25 11:17:36;;;;;;;2.20;2.00;;;25.00;32.40;;;27.96;25.82;101277.06;5035579;28;20217;-66
2022/05/25 11:20:18;;;;;;;1.83;1.60;;;24.90;32.90;;;27.48;26.59;101275.84;4997585;28;20235;-63
2022/05/25 11:23:12;;;;;;;2.10;1.93;;;24.60;33.00;;;27.08;27.29;101286.66;4897499;28;20207;-63
2022/05/25 11:25:57;;;;;;;3.50;2.03;;;24.40;33.80;;;27.06;27.45;101275.31;4734380;30;20333;-65
2022/05/25 11:31:47;;;;;;;4.33;1.97;;;24.30;34.20;;;26.79;27.63;101270.16;5135734;27;20550;-62
2022/05/25 11:34:34;;;;;;;2.70;2.07;;;24.10;35.00;;;26.74;28.36;101267.41;5072198;28;20787;-64
2022/05/25 11:37:23;;;;;;;2.90;1.77;;;23.90;35.10;;;26.66;27.89;101265.25;5023584;28;20194;-62
2022/05/25 11:40:04;;;;;;;1.70;1.37;;;23.80;36.10;;;26.89;27.89;101261.25;5013014;28;20295;-64
2022/05/25 11:42:56;;;;;;;3.57;2.50;;;23.80;35.10;;;27.18;27.52;101273.16;4812285;29;20294;-64
2022/05/25 11:45:41;;;;;;;4.53;3.13;;;23.90;35.10;;;27.34;26.98;101263.13;4575202;30;20278;-64
2022/05/25 11:50:58;;;;;;;1.97;1.10;;;24.00;35.10;;;27.48;26.44;101251.50;5168026;27;20601;-62
2022/05/25 11:53:47;;;;;;;2.97;1.80;;;24.10;33.60;;;27.11;25.81;101259.09;5150566;27;20226;-63
2022/05/25 11:56:46;;;;;;;1.13;1.13;;;24.10;32.70;;;26.54;27.25;101264.69;5101558;27;20579;-64
2022/05/25 11:59:51;;;;;;;1.30;1.10;;;24.00;33.10;;;26.48;27.98;101259.56;5109006;27;20192;-63
2022/05/25 12:02:51;;;;;;;1.43;1.23;;;24.00;34.00;;;26.43;28.01;101262.25;4837572;29;20220;-64
2022/05/25 12:05:29;;;;;;;2.13;1.90;;;23.90;34.70;;;26.50;28.43;101250.13;4625751;30;20647;-65
2022/05/25 12:08:17;;;;;;;3.87;1.80;;;23.80;35.30;;;26.60;28.73;101265.53;4500314;31;20222;-64
2022/05/25 12:13:33;;;;;;;1.30;1.20;;;23.70;36.00;;;26.99;28.40;101245.03;5130529;27;20906;-63
2022/05/25 12:16:11;;;;;;;1.97;1.80;;;23.80;36.40;;;27.10;28.03;101237.75;5078209;28;20230;-66
2022/05/25 12:18:46;;;;;;;1.30;1.20;;;23.80;36.30;;;27.06;27.98;101232.06;5039967;28;20202;-63
2022/05/25 12:21:19;;;;;;;3.63;1.97;;;24.00;36.40;;;27.13;28.31;101243.41;5052758;28;20208;-63
2022/05/25 12:23:52;;;;;;;1.97;1.53;;;24.00;36.10;;;27.28;27.32;101245.28;4992793;28;20748;-63
2022/05/25 12:26:25;;;;;;;1.80;1.70;;;24.00;35.10;;;27.46;26.72;101242.03;4909101;29;20260;-63